createdAt,value
2022-12-06T00:00:43.742Z,0.00
2022-12-06T00:01:44.449Z,0.00
2022-12-06T00:02:45.176Z,0.00
2022-12-06T00:03:45.969Z,0.00
2022-12-06T00:04:46.628Z,0.00
2022-12-06T00:05:47.203Z,0.00
2022-12-06T00:06:47.798Z,0.00
2022-12-06T00:07:48.508Z,0.00
2022-12-06T00:08:49.240Z,0.00
2022-12-06T00:09:49.838Z,0.00
2022-12-06T00:10:50.415Z,0.00
2022-12-06T00:11:50.991Z,0.00
2022-12-06T00:12:51.570Z,0.00
2022-12-06T00:13:52.199Z,0.00
2022-12-06T00:14:52.793Z,0.00
2022-12-06T00:15:53.371Z,0.00
2022-12-06T00:16:54.101Z,0.00
2022-12-06T00:17:54.789Z,0.00
2022-12-06T00:18:55.484Z,0.00
2022-12-06T00:19:56.051Z,0.00
2022-12-06T00:20:56.757Z,0.00
2022-12-06T00:21:57.349Z,0.00
2022-12-06T00:22:57.956Z,0.00
2022-12-06T00:23:58.595Z,0.00
2022-12-06T00:24:59.194Z,0.00
2022-12-06T00:25:59.770Z,0.00
2022-12-06T00:27:00.335Z,0.00
2022-12-06T00:28:00.896Z,0.00
2022-12-06T00:29:01.529Z,0.00
2022-12-06T00:30:02.373Z,0.00
2022-12-06T00:31:03.011Z,0.00
2022-12-06T00:32:03.664Z,0.00
2022-12-06T00:33:04.288Z,0.00
2022-12-06T00:34:04.954Z,0.00
2022-12-06T00:35:05.529Z,0.00
2022-12-06T00:36:06.130Z,0.00
2022-12-06T00:37:06.725Z,0.00
2022-12-06T00:38:07.336Z,0.00
2022-12-06T00:39:07.991Z,0.00
2022-12-06T00:40:08.581Z,0.00
2022-12-06T00:41:09.147Z,0.00
2022-12-06T00:42:09.707Z,0.00
2022-12-06T00:43:10.278Z,0.00
2022-12-06T00:44:10.884Z,0.00
2022-12-06T00:45:11.467Z,0.00
2022-12-06T00:46:12.108Z,0.00
2022-12-06T00:47:12.737Z,0.00
2022-12-06T00:48:13.345Z,0.00
2022-12-06T00:49:14.021Z,0.00
2022-12-06T00:50:14.635Z,0.00
2022-12-06T00:51:15.213Z,0.00
2022-12-06T00:52:15.779Z,0.00
2022-12-06T00:53:16.364Z,0.00
2022-12-06T00:54:17.132Z,0.00
2022-12-06T00:55:17.733Z,0.00
2022-12-06T00:56:18.313Z,0.00
2022-12-06T00:57:18.891Z,0.00
2022-12-06T00:58:19.461Z,0.00
2022-12-06T00:59:20.150Z,0.00
2022-12-06T01:00:20.714Z,0.00
2022-12-06T01:01:21.380Z,0.00
2022-12-06T01:02:22.032Z,0.00
2022-12-06T01:03:22.701Z,0.00
2022-12-06T01:04:23.494Z,0.00
2022-12-06T01:05:24.071Z,0.00
2022-12-06T01:06:24.678Z,0.00
2022-12-06T01:07:25.258Z,0.00
2022-12-06T01:08:25.826Z,0.00
2022-12-06T01:09:26.453Z,0.00
2022-12-06T01:10:27.052Z,0.00
2022-12-06T01:11:27.613Z,0.00
2022-12-06T01:12:28.249Z,0.00
2022-12-06T01:13:28.845Z,0.00
2022-12-06T01:14:29.481Z,0.00
2022-12-06T01:15:30.057Z,0.00
2022-12-06T01:16:30.707Z,0.00
2022-12-06T01:17:31.302Z,0.00
2022-12-06T01:18:32.049Z,0.00
2022-12-06T01:19:32.765Z,0.00
2022-12-06T01:20:33.333Z,0.00
2022-12-06T01:21:33.940Z,0.00
2022-12-06T01:22:34.526Z,0.00
2022-12-06T01:23:35.115Z,0.00
2022-12-06T01:24:35.879Z,0.00
2022-12-06T01:25:36.754Z,0.00
2022-12-06T01:26:37.366Z,0.00
2022-12-06T01:27:37.936Z,0.00
2022-12-06T01:28:38.502Z,0.00
2022-12-06T01:29:39.102Z,0.00
2022-12-06T01:30:39.728Z,0.00
2022-12-06T01:31:40.304Z,0.00
2022-12-06T01:32:40.873Z,0.00
2022-12-06T01:33:41.440Z,0.00
2022-12-06T01:34:42.108Z,0.00
2022-12-06T01:35:42.693Z,0.00
2022-12-06T01:36:43.308Z,0.00
2022-12-06T01:37:43.954Z,0.00
2022-12-06T01:38:44.519Z,0.00
2022-12-06T01:39:45.251Z,0.00
2022-12-06T01:40:45.857Z,0.00
2022-12-06T01:41:46.432Z,0.00
2022-12-06T01:42:47.016Z,0.00
2022-12-06T01:43:47.586Z,0.00
2022-12-06T01:44:48.188Z,0.00
2022-12-06T01:45:48.882Z,0.00
2022-12-06T01:46:49.534Z,0.00
2022-12-06T01:47:50.107Z,0.00
2022-12-06T01:48:50.712Z,0.00
2022-12-06T01:49:51.399Z,0.00
2022-12-06T01:50:52.047Z,0.00
2022-12-06T01:51:52.663Z,0.00
2022-12-06T01:52:53.225Z,0.00
2022-12-06T01:53:53.801Z,0.00
2022-12-06T01:54:54.557Z,0.00
2022-12-06T01:55:55.183Z,0.00
2022-12-06T01:56:55.784Z,0.00
2022-12-06T01:57:56.351Z,0.00
2022-12-06T01:58:56.926Z,0.00
2022-12-06T01:59:58.079Z,0.00
2022-12-06T02:00:58.419Z,0.00
2022-12-06T02:01:59.140Z,0.00
2022-12-06T02:02:59.886Z,0.00
2022-12-06T02:04:00.474Z,0.00
2022-12-06T02:05:01.077Z,0.00
2022-12-06T02:06:01.686Z,0.00
2022-12-06T02:07:02.284Z,0.00
2022-12-06T02:08:02.908Z,0.00
2022-12-06T02:09:03.528Z,0.00
2022-12-06T02:10:04.217Z,0.00
2022-12-06T02:11:04.838Z,0.00
2022-12-06T02:12:05.411Z,0.00
2022-12-06T02:13:06.015Z,0.00
2022-12-06T02:14:06.690Z,0.00
2022-12-06T02:15:07.310Z,0.00
2022-12-06T02:16:07.972Z,0.00
2022-12-06T02:17:08.608Z,0.00
2022-12-06T02:18:09.203Z,0.00
2022-12-06T02:19:09.767Z,0.00
2022-12-06T02:20:10.405Z,0.00
2022-12-06T02:21:10.998Z,0.00
2022-12-06T02:22:11.628Z,0.00
2022-12-06T02:23:12.225Z,0.00
2022-12-06T02:24:12.808Z,0.00
2022-12-06T02:25:13.500Z,0.00
2022-12-06T02:26:14.131Z,0.00
2022-12-06T02:27:14.713Z,0.00
2022-12-06T02:28:15.283Z,0.00
2022-12-06T02:29:15.865Z,0.00
2022-12-06T02:30:16.534Z,0.00
2022-12-06T02:31:17.186Z,0.00
2022-12-06T02:32:17.882Z,0.00
2022-12-06T02:33:18.489Z,0.00
2022-12-06T02:34:19.071Z,0.00
2022-12-06T02:35:19.810Z,0.00
2022-12-06T02:36:20.399Z,0.00
2022-12-06T02:37:21.042Z,0.00
2022-12-06T02:38:21.656Z,0.00
2022-12-06T02:39:22.226Z,0.00
2022-12-06T02:40:22.866Z,0.00
2022-12-06T02:41:23.477Z,0.00
2022-12-06T02:42:24.056Z,0.00
2022-12-06T02:43:24.642Z,0.00
2022-12-06T02:44:25.228Z,0.00
2022-12-06T02:45:25.841Z,0.00
2022-12-06T02:46:26.518Z,0.00
2022-12-06T02:47:27.139Z,0.00
2022-12-06T02:48:27.720Z,0.00
2022-12-06T02:49:28.284Z,0.00
2022-12-06T02:50:28.891Z,0.00
2022-12-06T02:51:29.461Z,0.00
2022-12-06T02:52:30.033Z,0.00
2022-12-06T02:53:30.617Z,0.00
2022-12-06T02:54:31.194Z,0.00
2022-12-06T02:55:31.951Z,0.00
2022-12-06T02:56:32.559Z,0.00
2022-12-06T02:57:33.148Z,0.00
2022-12-06T02:58:33.741Z,0.00
2022-12-06T02:59:34.311Z,0.00
2022-12-06T03:00:34.968Z,0.00
2022-12-06T03:01:35.655Z,0.00
2022-12-06T03:02:36.295Z,0.00
2022-12-06T03:03:36.932Z,0.00
2022-12-06T03:04:37.514Z,0.00
2022-12-06T03:05:38.351Z,0.00
2022-12-06T03:06:38.930Z,0.00
2022-12-06T03:07:39.528Z,0.00
2022-12-06T03:08:40.119Z,0.00
2022-12-06T03:09:40.688Z,0.00
2022-12-06T03:10:41.320Z,0.00
2022-12-06T03:11:41.956Z,0.00
2022-12-06T03:12:42.535Z,0.00
2022-12-06T03:13:43.106Z,0.00
2022-12-06T03:14:43.669Z,0.00
2022-12-06T03:15:44.387Z,0.00
2022-12-06T03:16:45.002Z,0.00
2022-12-06T03:17:45.646Z,0.00
2022-12-06T03:18:46.238Z,0.00
2022-12-06T03:19:46.814Z,0.00
2022-12-06T03:20:47.438Z,0.00
2022-12-06T03:21:48.038Z,0.00
2022-12-06T03:22:48.604Z,0.00
2022-12-06T03:23:49.180Z,0.00
2022-12-06T03:24:49.759Z,0.00
2022-12-06T03:25:50.501Z,0.00
2022-12-06T03:26:51.103Z,0.00
2022-12-06T03:27:51.679Z,0.00
2022-12-06T03:28:52.246Z,0.00
2022-12-06T03:29:52.810Z,0.00
2022-12-06T03:30:53.599Z,0.00
2022-12-06T03:31:54.213Z,0.00
2022-12-06T03:32:54.792Z,0.00
2022-12-06T03:33:55.371Z,0.00
2022-12-06T03:34:55.952Z,0.00
2022-12-06T03:35:56.635Z,0.00
2022-12-06T03:36:57.203Z,0.00
2022-12-06T03:37:57.773Z,0.00
2022-12-06T03:38:58.336Z,0.00
2022-12-06T03:39:59.383Z,0.00
2022-12-06T03:40:59.729Z,0.00
2022-12-06T03:42:00.334Z,0.00
2022-12-06T03:43:00.931Z,0.00
2022-12-06T03:44:01.547Z,0.00
2022-12-06T03:45:02.124Z,0.00
2022-12-06T03:46:02.889Z,0.00
2022-12-06T03:47:03.600Z,0.00
2022-12-06T03:48:04.230Z,0.00
2022-12-06T03:49:04.859Z,0.00
2022-12-06T03:50:05.522Z,0.00
2022-12-06T03:51:06.128Z,0.00
2022-12-06T03:52:06.752Z,0.00
2022-12-06T03:53:07.400Z,0.00
2022-12-06T03:54:07.977Z,0.00
2022-12-06T03:55:08.550Z,0.00
2022-12-06T03:56:09.256Z,0.00
2022-12-06T03:57:09.888Z,0.00
2022-12-06T03:58:10.511Z,0.00
2022-12-06T03:59:11.096Z,0.00
2022-12-06T04:00:11.671Z,0.00
2022-12-06T04:01:12.349Z,0.00
2022-12-06T04:02:13.022Z,0.00
2022-12-06T04:03:13.614Z,0.00
2022-12-06T04:04:14.285Z,0.00
2022-12-06T04:05:14.915Z,0.00
2022-12-06T04:06:15.653Z,0.00
2022-12-06T04:07:16.238Z,0.00
2022-12-06T04:08:16.885Z,0.00
2022-12-06T04:09:17.512Z,0.00
2022-12-06T04:10:18.086Z,0.00
2022-12-06T04:11:18.728Z,0.00
2022-12-06T04:12:19.369Z,0.00
2022-12-06T04:13:20.113Z,0.00
2022-12-06T04:14:20.696Z,0.00
2022-12-06T04:15:21.268Z,0.00
2022-12-06T04:16:22.171Z,0.00
2022-12-06T04:17:22.795Z,0.00
2022-12-06T04:18:23.366Z,0.00
2022-12-06T04:19:23.934Z,0.00
2022-12-06T04:20:24.506Z,0.00
2022-12-06T04:21:49.674Z,0.00
2022-12-06T04:22:25.711Z,0.00
2022-12-06T04:23:26.288Z,0.00
2022-12-06T04:24:26.865Z,0.00
2022-12-06T04:25:27.435Z,0.00
2022-12-06T04:26:28.044Z,0.00
2022-12-06T04:27:28.670Z,0.00
2022-12-06T04:28:29.251Z,0.00
2022-12-06T04:29:29.832Z,0.00
2022-12-06T04:30:30.432Z,0.00
2022-12-06T04:31:31.074Z,0.00
2022-12-06T04:32:31.743Z,0.00
2022-12-06T04:33:32.330Z,0.00
2022-12-06T04:34:32.916Z,0.00
2022-12-06T04:35:33.545Z,0.00
2022-12-06T04:36:34.123Z,0.00
2022-12-06T04:37:34.877Z,0.00
2022-12-06T04:38:35.501Z,0.00
2022-12-06T04:39:36.071Z,0.00
2022-12-06T04:40:36.638Z,0.00
2022-12-06T04:41:37.225Z,0.00
2022-12-06T04:42:37.867Z,0.00
2022-12-06T04:43:38.483Z,0.00
2022-12-06T04:44:39.055Z,0.00
2022-12-06T04:45:39.644Z,0.00
2022-12-06T04:46:40.316Z,0.00
2022-12-06T04:47:41.008Z,0.00
2022-12-06T04:48:41.587Z,0.00
2022-12-06T04:49:42.160Z,0.00
2022-12-06T04:50:42.850Z,0.00
2022-12-06T04:51:43.437Z,0.00
2022-12-06T04:52:44.051Z,0.00
2022-12-06T04:53:44.633Z,0.00
2022-12-06T04:54:45.216Z,0.00
2022-12-06T04:55:45.795Z,0.00
2022-12-06T04:56:46.377Z,0.00
2022-12-06T04:57:47.047Z,0.00
2022-12-06T04:58:47.626Z,0.00
2022-12-06T04:59:48.206Z,0.00
2022-12-06T05:00:48.810Z,0.00
2022-12-06T05:01:49.425Z,0.00
2022-12-06T05:02:50.035Z,0.00
2022-12-06T05:03:50.652Z,0.00
2022-12-06T05:04:51.212Z,0.00
2022-12-06T05:05:51.750Z,0.00
2022-12-06T05:06:52.268Z,0.00
2022-12-06T05:07:52.895Z,0.00
2022-12-06T05:08:53.502Z,0.00
2022-12-06T05:09:54.028Z,0.00
2022-12-06T05:10:54.561Z,0.00
2022-12-06T05:11:55.082Z,0.00
2022-12-06T05:12:55.656Z,0.00
2022-12-06T05:13:56.219Z,0.00
2022-12-06T05:14:56.741Z,0.00
2022-12-06T05:15:57.302Z,0.00
2022-12-06T05:16:57.880Z,0.00
2022-12-06T05:17:58.460Z,0.00
2022-12-06T05:18:58.986Z,0.00
2022-12-06T05:19:59.849Z,0.00
2022-12-06T05:21:00.451Z,0.00
2022-12-06T05:22:00.987Z,0.00
2022-12-06T05:23:01.537Z,0.00
2022-12-06T05:24:02.063Z,0.00
2022-12-06T05:25:02.591Z,0.00
2022-12-06T05:26:03.112Z,0.00
2022-12-06T05:27:03.640Z,0.00
2022-12-06T05:28:04.349Z,0.00
2022-12-06T05:29:04.890Z,0.00
2022-12-06T05:30:05.412Z,0.00
2022-12-06T05:31:05.992Z,0.00
2022-12-06T05:32:06.542Z,0.00
2022-12-06T05:33:07.086Z,0.00
2022-12-06T05:34:07.597Z,0.00
2022-12-06T05:35:08.133Z,0.00
2022-12-06T05:36:08.673Z,0.00
2022-12-06T05:37:09.334Z,0.00
2022-12-06T05:38:09.966Z,0.00
2022-12-06T05:39:10.479Z,0.00
2022-12-06T05:40:10.999Z,0.00
2022-12-06T05:41:11.516Z,0.00
2022-12-06T05:42:20.422Z,0.00
2022-12-06T05:43:12.959Z,0.00
2022-12-06T05:44:13.537Z,0.00
2022-12-06T05:45:14.127Z,0.00
2022-12-06T05:46:14.760Z,0.00
2022-12-06T05:47:15.342Z,0.00
2022-12-06T05:48:15.938Z,0.00
2022-12-06T05:49:16.565Z,0.00
2022-12-06T05:50:18.947Z,0.00
2022-12-06T05:51:18.989Z,0.00
2022-12-06T05:52:18.603Z,0.00
2022-12-06T05:53:20.413Z,0.00
2022-12-06T05:54:23.394Z,0.00
2022-12-06T05:55:20.438Z,0.00
2022-12-06T05:56:21.067Z,0.00
2022-12-06T05:57:21.584Z,0.00
2022-12-06T05:58:22.258Z,0.00
2022-12-06T05:59:22.892Z,5.62
2022-12-06T06:00:25.158Z,5.62
2022-12-06T06:01:24.630Z,5.62
2022-12-06T06:02:27.632Z,5.62
2022-12-06T06:03:27.053Z,5.62
2022-12-06T06:04:26.949Z,5.62
2022-12-06T06:05:27.154Z,5.62
2022-12-06T06:06:29.219Z,5.62
2022-12-06T06:07:28.632Z,5.62
2022-12-06T06:08:30.348Z,5.62
2022-12-06T06:09:31.055Z,5.62
2022-12-06T06:10:32.532Z,5.62
2022-12-06T06:11:31.185Z,5.62
2022-12-06T06:12:32.436Z,5.62
2022-12-06T06:13:33.289Z,5.62
2022-12-06T06:14:33.838Z,5.62
2022-12-06T06:15:35.350Z,11.25
2022-12-06T06:16:38.722Z,11.25
2022-12-06T06:17:42.645Z,11.25
2022-12-06T06:18:36.820Z,11.25
2022-12-06T06:19:37.091Z,11.25
2022-12-06T06:20:37.124Z,11.25
2022-12-06T06:21:37.668Z,11.25
2022-12-06T06:22:38.341Z,11.25
2022-12-06T06:23:41.652Z,11.25
2022-12-06T06:24:39.514Z,16.88
2022-12-06T06:25:44.594Z,16.88
2022-12-06T06:28:50.469Z,16.88
2022-12-06T06:29:48.480Z,22.50
2022-12-06T06:30:49.098Z,22.50
2022-12-06T06:31:49.680Z,22.50
2022-12-06T06:32:50.281Z,22.50
2022-12-06T06:33:52.724Z,22.50
2022-12-06T06:34:52.769Z,22.50
2022-12-06T06:35:52.599Z,22.50
2022-12-06T06:36:53.169Z,28.12
2022-12-06T06:37:53.725Z,28.12
2022-12-06T06:38:55.006Z,28.12
2022-12-06T06:39:58.170Z,28.12
2022-12-06T06:40:55.956Z,28.12
2022-12-06T06:41:56.488Z,28.12
2022-12-06T06:42:57.005Z,28.12
2022-12-06T06:43:57.685Z,28.12
2022-12-06T06:44:58.219Z,33.75
2022-12-06T06:45:58.783Z,33.75
2022-12-06T06:46:59.382Z,33.75
2022-12-06T06:47:59.905Z,33.75
2022-12-06T06:49:00.465Z,33.75
2022-12-06T06:50:01.218Z,33.75
2022-12-06T06:51:01.943Z,33.75
2022-12-06T06:52:02.462Z,33.75
2022-12-06T06:53:02.991Z,33.75
2022-12-06T06:54:03.548Z,33.75
2022-12-06T06:55:04.066Z,39.38
2022-12-06T06:56:04.592Z,39.38
2022-12-06T06:57:05.109Z,39.38
2022-12-06T06:58:05.630Z,39.38
2022-12-06T06:59:06.296Z,39.38
2022-12-06T07:00:06.839Z,39.38
2022-12-06T07:01:07.577Z,39.38
2022-12-06T07:02:08.287Z,39.38
2022-12-06T07:03:08.889Z,39.38
2022-12-06T07:04:10.794Z,39.38
2022-12-06T07:05:14.365Z,45.00
2022-12-06T07:06:11.228Z,45.00
2022-12-06T07:07:14.356Z,45.00
2022-12-06T07:08:12.714Z,45.00
2022-12-06T07:09:13.309Z,45.00
2022-12-06T07:10:13.836Z,45.00
2022-12-06T07:11:14.356Z,45.00
2022-12-06T07:12:14.873Z,45.00
2022-12-06T07:13:15.391Z,45.00
2022-12-06T07:14:16.039Z,45.00
2022-12-06T07:15:16.586Z,45.00
2022-12-06T07:16:17.243Z,45.00
2022-12-06T07:17:17.840Z,45.00
2022-12-06T07:18:18.424Z,45.00
2022-12-06T07:19:19.016Z,45.00
2022-12-06T07:20:19.603Z,45.00
2022-12-06T07:21:20.129Z,45.00
2022-12-06T07:22:20.640Z,45.00
2022-12-06T07:23:21.162Z,45.00
2022-12-06T07:24:21.707Z,45.00
2022-12-06T07:25:22.256Z,50.62
2022-12-06T07:26:22.766Z,50.62
2022-12-06T07:27:23.289Z,56.25
2022-12-06T07:28:23.819Z,50.62
2022-12-06T07:29:24.407Z,50.62
2022-12-06T07:30:27.535Z,50.62
2022-12-06T07:31:25.917Z,50.62
2022-12-06T07:32:26.511Z,50.62
2022-12-06T07:33:27.067Z,50.62
2022-12-06T07:34:27.604Z,50.62
2022-12-06T07:35:48.583Z,50.62
2022-12-06T07:36:28.983Z,50.62
2022-12-06T07:37:29.509Z,50.62
2022-12-06T07:38:30.028Z,50.62
2022-12-06T07:39:30.663Z,50.62
2022-12-06T07:41:02.902Z,56.25
2022-12-06T07:41:32.056Z,56.25
2022-12-06T07:42:32.575Z,56.25
2022-12-06T07:43:33.101Z,56.25
2022-12-06T07:44:33.774Z,56.25
2022-12-06T07:45:34.309Z,56.25
2022-12-06T07:46:34.931Z,56.25
2022-12-06T07:47:35.493Z,56.25
2022-12-06T07:48:36.015Z,56.25
2022-12-06T07:49:36.583Z,56.25
2022-12-06T07:50:37.104Z,56.25
2022-12-06T07:51:37.629Z,56.25
2022-12-06T07:52:38.174Z,56.25
2022-12-06T07:53:38.688Z,56.25
2022-12-06T07:54:39.238Z,56.25
2022-12-06T07:55:39.767Z,56.25
2022-12-06T07:56:40.288Z,61.88
2022-12-06T07:57:43.710Z,61.88
2022-12-06T07:58:41.701Z,61.88
2022-12-06T07:59:42.428Z,61.88
2022-12-06T08:00:42.948Z,61.88
2022-12-06T08:01:43.561Z,61.88
2022-12-06T08:02:44.146Z,61.88
2022-12-06T08:03:44.672Z,61.88
2022-12-06T08:04:45.314Z,61.88
2022-12-06T08:05:45.959Z,61.88
2022-12-06T08:06:46.479Z,61.88
2022-12-06T08:07:47.136Z,61.88
2022-12-06T08:08:47.712Z,61.88
2022-12-06T08:09:48.311Z,61.88
2022-12-06T08:10:48.826Z,61.88
2022-12-06T08:11:49.338Z,61.88
2022-12-06T08:12:49.859Z,61.88
2022-12-06T08:13:50.379Z,61.88
2022-12-06T08:14:53.184Z,67.50
2022-12-06T08:15:51.885Z,67.50
2022-12-06T08:16:52.545Z,67.50
2022-12-06T08:17:53.099Z,67.50
2022-12-06T08:18:53.629Z,67.50
2022-12-06T08:19:54.198Z,67.50
2022-12-06T08:20:54.703Z,67.50
2022-12-06T08:21:55.228Z,67.50
2022-12-06T08:22:55.756Z,67.50
2022-12-06T08:23:56.284Z,67.50
2022-12-06T08:24:56.839Z,67.50
2022-12-06T08:25:57.376Z,67.50
2022-12-06T08:26:57.928Z,67.50
2022-12-06T08:27:58.469Z,67.50
2022-12-06T08:28:59.033Z,67.50
2022-12-06T08:30:00.042Z,67.50
2022-12-06T08:31:03.293Z,67.50
2022-12-06T08:32:01.064Z,67.50
2022-12-06T08:33:01.588Z,67.50
2022-12-06T08:34:02.094Z,67.50
2022-12-06T08:35:02.703Z,67.50
2022-12-06T08:36:03.226Z,67.50
2022-12-06T08:37:03.911Z,67.50
2022-12-06T08:38:04.484Z,67.50
2022-12-06T08:39:05.028Z,67.50
2022-12-06T08:40:05.583Z,67.50
2022-12-06T08:41:06.122Z,67.50
2022-12-06T08:42:06.657Z,73.12
2022-12-06T08:43:07.188Z,73.12
2022-12-06T08:44:07.709Z,73.12
2022-12-06T08:45:08.280Z,73.12
2022-12-06T08:46:08.851Z,73.12
2022-12-06T08:47:09.411Z,73.12
2022-12-06T08:48:09.933Z,73.12
2022-12-06T08:49:10.459Z,67.50
2022-12-06T08:50:11.011Z,67.50
2022-12-06T08:51:11.527Z,73.12
2022-12-06T08:52:12.052Z,73.12
2022-12-06T08:53:12.575Z,73.12
2022-12-06T08:54:13.103Z,73.12
2022-12-06T08:55:13.718Z,67.50
2022-12-06T08:56:14.270Z,73.12
2022-12-06T08:57:14.818Z,73.12
2022-12-06T08:58:15.357Z,73.12
2022-12-06T08:59:15.893Z,73.12
2022-12-06T09:00:16.524Z,73.12
2022-12-06T09:01:17.105Z,73.12
2022-12-06T09:02:17.763Z,73.12
2022-12-06T09:03:18.385Z,73.12
2022-12-06T09:04:18.988Z,73.12
2022-12-06T09:05:19.614Z,73.12
2022-12-06T09:06:20.276Z,73.12
2022-12-06T09:07:20.906Z,73.12
2022-12-06T09:08:21.482Z,73.12
2022-12-06T09:09:22.073Z,73.12
2022-12-06T09:10:22.660Z,73.12
2022-12-06T09:11:23.171Z,73.12
2022-12-06T09:12:23.737Z,73.12
2022-12-06T09:13:24.255Z,73.12
2022-12-06T09:14:24.775Z,73.12
2022-12-06T09:15:25.354Z,73.12
2022-12-06T09:16:26.018Z,73.12
2022-12-06T09:17:26.676Z,73.12
2022-12-06T09:18:27.268Z,73.12
2022-12-06T09:19:27.888Z,73.12
2022-12-06T09:20:28.473Z,73.12
2022-12-06T09:21:28.996Z,73.12
2022-12-06T09:22:29.523Z,73.12
2022-12-06T09:23:30.110Z,73.12
2022-12-06T09:24:30.628Z,73.12
2022-12-06T09:25:31.233Z,73.12
2022-12-06T09:26:31.755Z,73.12
2022-12-06T09:27:32.278Z,78.75
2022-12-06T09:28:32.799Z,78.75
2022-12-06T09:29:38.874Z,78.75
2022-12-06T09:30:34.262Z,78.75
2022-12-06T09:31:34.843Z,78.75
2022-12-06T09:32:35.384Z,78.75
2022-12-06T09:33:35.912Z,78.75
2022-12-06T09:34:36.433Z,78.75
2022-12-06T09:35:37.024Z,78.75
2022-12-06T09:36:37.539Z,78.75
2022-12-06T09:37:38.062Z,78.75
2022-12-06T09:38:38.647Z,78.75
2022-12-06T09:39:39.184Z,73.12
2022-12-06T09:40:42.864Z,78.75
2022-12-06T09:41:40.721Z,73.12
2022-12-06T09:42:41.244Z,78.75
2022-12-06T09:43:41.772Z,78.75
2022-12-06T09:44:42.306Z,78.75
2022-12-06T09:45:42.962Z,73.12
2022-12-06T09:46:43.578Z,73.12
2022-12-06T09:47:44.133Z,73.12
2022-12-06T09:48:48.833Z,73.12
2022-12-06T09:49:45.323Z,73.12
2022-12-06T09:50:45.912Z,73.12
2022-12-06T09:51:46.576Z,78.75
2022-12-06T09:52:47.120Z,78.75
2022-12-06T09:53:47.671Z,78.75
2022-12-06T09:54:51.901Z,78.75
2022-12-06T09:55:49.082Z,73.12
2022-12-06T09:56:49.632Z,73.12
2022-12-06T09:57:50.152Z,73.12
2022-12-06T09:58:50.689Z,73.12
2022-12-06T09:59:51.222Z,73.12
2022-12-06T10:00:51.930Z,73.12
2022-12-06T10:01:52.524Z,78.75
2022-12-06T10:02:53.179Z,73.12
2022-12-06T10:03:53.719Z,67.50
2022-12-06T10:04:54.244Z,73.12
2022-12-06T10:05:54.794Z,73.12
2022-12-06T10:06:55.313Z,73.12
2022-12-06T10:07:55.995Z,73.12
2022-12-06T10:08:56.715Z,73.12
2022-12-06T10:09:57.476Z,73.12
2022-12-06T10:10:58.198Z,73.12
2022-12-06T10:11:58.715Z,73.12
2022-12-06T10:12:59.254Z,73.12
2022-12-06T10:13:59.781Z,73.12
2022-12-06T10:15:00.298Z,73.12
2022-12-06T10:16:00.978Z,73.12
2022-12-06T10:17:01.549Z,73.12
2022-12-06T10:18:02.102Z,73.12
2022-12-06T10:19:03.040Z,73.12
2022-12-06T10:20:03.805Z,73.12
2022-12-06T10:21:04.504Z,73.12
2022-12-06T10:22:05.037Z,73.12
2022-12-06T10:23:05.568Z,73.12
2022-12-06T10:24:06.151Z,73.12
2022-12-06T10:25:06.724Z,73.12
2022-12-06T10:26:07.295Z,73.12
2022-12-06T10:27:07.809Z,73.12
2022-12-06T10:28:08.328Z,73.12
2022-12-06T10:29:08.868Z,73.12
2022-12-06T10:30:09.413Z,73.12
2022-12-06T10:31:10.097Z,73.12
2022-12-06T10:32:10.671Z,73.12
2022-12-06T10:33:10.606Z,73.12
2022-12-06T10:34:12.145Z,73.12
2022-12-06T10:35:12.666Z,73.12
2022-12-06T10:36:13.270Z,73.12
2022-12-06T10:37:13.793Z,73.12
2022-12-06T10:38:14.322Z,73.12
2022-12-06T10:39:14.851Z,73.12
2022-12-06T10:40:15.369Z,73.12
2022-12-06T10:41:16.002Z,73.12
2022-12-06T10:42:16.565Z,73.12
2022-12-06T10:43:17.091Z,73.12
2022-12-06T10:44:17.668Z,73.12
2022-12-06T10:45:21.909Z,73.12
2022-12-06T10:46:19.163Z,73.12
2022-12-06T10:47:19.746Z,73.12
2022-12-06T10:48:20.311Z,73.12
2022-12-06T10:49:20.835Z,73.12
2022-12-06T10:50:21.416Z,73.12
2022-12-06T10:51:22.013Z,73.12
2022-12-06T10:52:22.529Z,73.12
2022-12-06T10:53:23.050Z,73.12
2022-12-06T10:54:23.583Z,73.12
2022-12-06T10:55:24.118Z,73.12
2022-12-06T10:56:24.664Z,73.12
2022-12-06T10:57:25.242Z,73.12
2022-12-06T10:58:25.835Z,73.12
2022-12-06T10:59:26.378Z,73.12
2022-12-06T11:00:26.908Z,73.12
2022-12-06T11:01:27.575Z,73.12
2022-12-06T11:02:28.135Z,73.12
2022-12-06T11:03:28.715Z,73.12
2022-12-06T11:04:29.232Z,73.12
2022-12-06T11:05:29.759Z,73.12
2022-12-06T11:06:30.344Z,73.12
2022-12-06T11:07:30.934Z,73.12
2022-12-06T11:08:31.456Z,73.12
2022-12-06T11:09:31.969Z,73.12
2022-12-06T11:10:32.513Z,73.12
2022-12-06T11:11:33.155Z,73.12
2022-12-06T11:12:33.683Z,73.12
2022-12-06T11:13:34.221Z,73.12
2022-12-06T11:14:34.771Z,73.12
2022-12-06T11:15:35.282Z,73.12
2022-12-06T11:16:35.883Z,73.12
2022-12-06T11:17:36.520Z,73.12
2022-12-06T11:18:37.087Z,73.12
2022-12-06T11:19:37.654Z,73.12
2022-12-06T11:20:38.192Z,73.12
2022-12-06T11:21:38.778Z,73.12
2022-12-06T11:22:39.290Z,73.12
2022-12-06T11:23:39.818Z,73.12
2022-12-06T11:24:44.641Z,73.12
2022-12-06T11:25:41.199Z,73.12
2022-12-06T11:26:41.748Z,73.12
2022-12-06T11:27:42.263Z,73.12
2022-12-06T11:28:42.781Z,73.12
2022-12-06T11:29:43.328Z,73.12
2022-12-06T11:30:43.859Z,73.12
2022-12-06T11:31:44.608Z,73.12
2022-12-06T11:32:45.168Z,67.50
2022-12-06T11:33:45.701Z,67.50
2022-12-06T11:34:46.217Z,67.50
2022-12-06T11:35:46.739Z,67.50
2022-12-06T11:36:47.366Z,67.50
2022-12-06T11:37:47.890Z,67.50
2022-12-06T11:38:48.414Z,67.50
2022-12-06T11:39:48.960Z,67.50
2022-12-06T11:40:49.495Z,67.50
2022-12-06T11:41:50.158Z,67.50
2022-12-06T11:42:50.672Z,67.50
2022-12-06T11:43:51.189Z,67.50
2022-12-06T11:44:51.709Z,67.50
2022-12-06T11:45:52.242Z,67.50
2022-12-06T11:46:52.930Z,67.50
2022-12-06T11:47:53.480Z,67.50
2022-12-06T11:48:54.059Z,67.50
2022-12-06T11:49:54.589Z,67.50
2022-12-06T11:50:55.106Z,67.50
2022-12-06T11:51:55.654Z,67.50
2022-12-06T11:52:56.174Z,67.50
2022-12-06T11:53:56.701Z,67.50
2022-12-06T11:54:57.384Z,67.50
2022-12-06T11:55:57.961Z,67.50
2022-12-06T11:56:58.562Z,67.50
2022-12-06T11:57:59.169Z,67.50
2022-12-06T11:58:59.695Z,67.50
2022-12-06T12:00:00.617Z,67.50
2022-12-06T12:01:00.868Z,67.50
2022-12-06T12:02:01.635Z,61.88
2022-12-06T12:03:02.274Z,61.88
2022-12-06T12:04:02.882Z,61.88
2022-12-06T12:05:03.399Z,61.88
2022-12-06T12:06:03.911Z,61.88
2022-12-06T12:07:04.461Z,61.88
2022-12-06T12:08:05.046Z,61.88
2022-12-06T12:09:05.629Z,61.88
2022-12-06T12:10:06.159Z,61.88
2022-12-06T12:11:06.683Z,61.88
2022-12-06T12:12:07.251Z,61.88
2022-12-06T12:13:07.895Z,61.88
2022-12-06T12:14:08.436Z,61.88
2022-12-06T12:15:08.972Z,61.88
2022-12-06T12:16:09.549Z,61.88
2022-12-06T12:17:10.203Z,61.88
2022-12-06T12:18:10.718Z,61.88
2022-12-06T12:19:11.297Z,61.88
2022-12-06T12:20:11.852Z,61.88
2022-12-06T12:21:12.369Z,61.88
2022-12-06T12:22:13.012Z,61.88
2022-12-06T12:23:13.530Z,61.88
2022-12-06T12:24:14.052Z,61.88
2022-12-06T12:25:19.253Z,61.88
2022-12-06T12:26:15.481Z,61.88
2022-12-06T12:27:22.139Z,56.25
2022-12-06T12:28:16.906Z,56.25
2022-12-06T12:29:17.423Z,56.25
2022-12-06T12:30:17.934Z,56.25
2022-12-06T12:31:18.567Z,56.25
2022-12-06T12:32:19.190Z,56.25
2022-12-06T12:33:19.748Z,56.25
2022-12-06T12:34:20.274Z,56.25
2022-12-06T12:35:20.795Z,56.25
2022-12-06T12:36:21.300Z,56.25
2022-12-06T12:37:21.900Z,56.25
2022-12-06T12:38:22.419Z,50.62
2022-12-06T12:39:22.951Z,56.25
2022-12-06T12:40:23.487Z,50.62
2022-12-06T12:41:24.018Z,50.62
2022-12-06T12:42:24.570Z,50.62
2022-12-06T12:43:25.105Z,50.62
2022-12-06T12:44:41.094Z,50.62
2022-12-06T12:45:26.488Z,50.62
2022-12-06T12:46:27.049Z,50.62
2022-12-06T12:47:27.787Z,50.62
2022-12-06T12:48:28.323Z,50.62
2022-12-06T12:49:28.849Z,50.62
2022-12-06T12:50:29.368Z,50.62
2022-12-06T12:51:29.883Z,50.62
2022-12-06T12:52:30.538Z,50.62
2022-12-06T12:53:31.261Z,45.00
2022-12-06T12:54:31.874Z,45.00
2022-12-06T12:55:32.436Z,50.62
2022-12-06T12:56:32.949Z,45.00
2022-12-06T12:57:33.504Z,45.00
2022-12-06T12:58:36.168Z,45.00
2022-12-06T12:59:35.006Z,50.62
2022-12-06T13:00:35.530Z,50.62
2022-12-06T13:01:36.136Z,50.62
2022-12-06T13:02:36.856Z,50.62
2022-12-06T13:03:52.844Z,50.62
2022-12-06T13:04:38.268Z,50.62
2022-12-06T13:05:45.100Z,45.00
2022-12-06T13:06:39.650Z,50.62
2022-12-06T13:07:40.269Z,45.00
2022-12-06T13:08:40.832Z,45.00
2022-12-06T13:09:41.486Z,45.00
2022-12-06T13:10:42.083Z,45.00
2022-12-06T13:11:42.619Z,45.00
2022-12-06T13:12:43.165Z,45.00
2022-12-06T13:13:43.684Z,45.00
2022-12-06T13:14:44.200Z,45.00